Time;durP1;ratioP1;P1;durP2;ratioP2;P2;SDS_P1;SDS_P2;PMS_P1;PMS_P2;Temp;Humidity;BMP_temperature;BMP_pressure;BME280_temperature;BME280_humidity;BME280_pressure;Samples;Min_cycle;Max_cycle;Signal;HPM_P1;HPM_P2
2022/07/04 00:01:16;;;;;;;60.63;35.80;;;;;;;-143.10;100.00;51104.66;4798125;29;20501;-73
2022/07/04 00:04:05;;;;;;;55.80;35.03;;;;;;;-143.10;100.00;51126.19;4783239;29;20043;-74
2022/07/04 00:06:54;;;;;;;57.88;35.88;;;;;;;-143.10;100.00;51114.44;4798529;29;20123;-75
2022/07/04 00:09:36;;;;;;;63.15;37.90;;;;;;;-143.10;100.00;51090.94;4801322;29;20134;-74
2022/07/04 00:12:25;;;;;;;62.45;34.53;;;;;;;-143.10;100.00;51112.50;4779553;29;20051;-74
2022/07/04 00:15:15;;;;;;;58.55;34.55;;;;;;;-143.10;100.00;51112.50;4778826;29;20139;-74
2022/07/04 00:17:57;;;;;;;51.53;31.95;;;;;;;-143.10;100.00;51139.91;4794884;29;20059;-73
2022/07/04 00:20:46;;;;;;;54.40;32.92;;;;;;;-143.10;100.00;51104.66;4780821;29;20530;-73
2022/07/04 00:23:41;;;;;;;53.58;30.70;;;;;;;-143.10;100.00;51116.41;4781815;29;20051;-75
2022/07/04 00:26:16;;;;;;;49.47;30.40;;;;;;;-143.10;100.00;51092.91;4810975;29;20131;-74
2022/07/04 00:29:06;;;;;;;51.35;30.60;;;;;;;-143.10;100.00;51104.66;4814289;29;20108;-72
2022/07/04 00:31:48;;;;;;;51.58;28.27;;;;;;;-143.10;100.00;51104.66;4812168;29;20158;-75
2022/07/04 00:34:36;;;;;;;50.17;28.17;;;;;;;-143.10;100.00;51116.41;4782577;29;20055;-74
2022/07/04 00:37:19;;;;;;;48.05;29.45;;;;;;;-143.10;100.00;51092.91;4797152;29;20086;-74
2022/07/04 00:40:15;;;;;;;47.10;29.17;;;;;;;-143.10;100.00;51100.75;4799055;29;20054;-75
2022/07/04 00:42:50;;;;;;;48.83;28.80;;;;;;;-143.10;100.00;51104.66;4782572;29;20046;-74
2022/07/04 00:45:45;;;;;;;46.00;28.73;;;;;;;-143.10;100.00;51106.63;4501232;29;8961122;-72
2022/07/04 00:48:33;;;;;;;48.70;29.60;;;;;;;-143.10;100.00;51135.97;4782718;29;20111;-75
2022/07/04 00:51:24;;;;;;;42.80;27.20;;;;;;;-143.10;100.00;51135.97;4783289;29;20055;-75
2022/07/04 00:54:07;;;;;;;41.10;26.75;;;;;;;-143.10;100.00;51112.50;4783372;29;20134;-75
2022/07/04 00:56:57;;;;;;;43.22;26.15;;;;;;;-143.10;100.00;51104.66;4798679;29;20051;-75
2022/07/04 00:59:46;;;;;;;36.28;24.75;;;;;;;-143.10;100.00;51112.50;4799351;29;20556;-75
2022/07/04 01:02:28;;;;;;;41.05;26.27;;;;;;;-143.10;100.00;51112.50;4797945;29;20069;-75
2022/07/04 01:05:17;;;;;;;38.83;24.65;;;;;;;-143.10;100.00;51112.50;4780404;30;20716;-75
2022/07/04 01:08:00;;;;;;;37.60;25.83;;;;;;;-143.10;100.00;51124.22;4780915;30;20059;-73
2022/07/04 01:10:49;;;;;;;40.80;25.60;;;;;;;-143.10;100.00;51096.81;4781298;30;20130;-75
2022/07/04 01:13:31;;;;;;;43.50;26.08;;;;;;;-143.10;100.00;51098.78;4780796;30;20051;-73
2022/07/04 01:16:27;;;;;;;39.42;24.60;;;;;;;-143.10;100.00;51112.50;4779863;29;20055;-74
2022/07/04 01:19:02;;;;;;;39.67;24.98;;;;;;;-143.10;100.00;51114.44;4765249;30;20066;-74
2022/07/04 01:21:51;;;;;;;44.17;25.60;;;;;;;-143.10;100.00;51141.84;4781546;30;20551;-74
2022/07/04 01:24:34;;;;;;;39.28;25.08;;;;;;;-143.10;100.00;51094.88;4780988;30;20047;-74
2022/07/04 01:27:23;;;;;;;39.72;25.90;;;;;;;-143.10;100.00;51075.28;4779663;29;20051;-74
2022/07/04 01:30:05;;;;;;;36.75;25.10;;;;;;;-143.10;100.00;51104.66;4807661;29;20065;-73
2022/07/04 01:32:54;;;;;;;41.05;25.83;;;;;;;-143.10;100.00;51110.53;4817153;29;20177;-73
2022/07/04 01:35:43;;;;;;;39.63;25.50;;;;;;;-143.10;100.00;51104.66;4800850;29;20299;-74
2022/07/04 01:38:25;;;;;;;39.13;25.48;;;;;;;-143.10;100.00;51098.78;4815871;29;20089;-73
2022/07/04 01:41:14;;;;;;;39.05;25.95;;;;;;;-143.10;100.00;51079.19;4816590;29;20050;-72
2022/07/04 01:44:02;;;;;;;37.90;25.92;;;;;;;-143.10;100.00;51122.28;4817410;29;20057;-73
2022/07/04 01:46:50;;;;;;;38.63;25.20;;;;;;;-143.10;100.00;51100.75;4787942;29;20086;-73
2022/07/04 01:49:33;;;;;;;36.17;24.88;;;;;;;-143.10;100.00;51089.00;4784747;29;20085;-72
2022/07/04 01:52:21;;;;;;;38.90;24.08;;;;;;;-143.10;100.00;51079.19;4785001;29;20078;-72
2022/07/04 01:55:12;;;;;;;38.78;25.33;;;;;;;-143.10;100.00;51081.16;4793606;29;20051;-73
2022/07/04 01:57:54;;;;;;;43.25;24.30;;;;;;;-143.10;100.00;51096.81;4797178;29;20414;-74
2022/07/04 02:03:49;;;;;;;42.10;25.23;;;;;;;-143.10;100.00;51077.25;4785955;29;20112;-73
2022/07/04 02:06:33;;;;;;;34.03;24.20;;;;;;;-143.10;100.00;51073.34;4765367;30;20059;-73
2022/07/04 02:09:22;;;;;;;37.08;23.80;;;;;;;-143.10;100.00;51045.91;4780350;29;20799;-73
2022/07/04 02:15:17;;;;;;;34.92;25.02;;;;;;;-143.10;100.00;51096.81;4783068;29;20463;-71
2022/07/04 02:17:53;;;;;;;39.97;24.50;;;;;;;-143.10;100.00;51024.38;4782062;29;20051;-74
2022/07/04 02:20:42;;;;;;;32.83;24.38;;;;;;;-143.10;100.00;51083.13;4750378;30;20070;-73
2022/07/04 02:23:31;;;;;;;44.95;23.17;;;;;;;-143.10;100.00;51073.34;4754725;30;20128;-74
2022/07/04 02:26:12;;;;;;;32.50;23.92;;;;;;;-143.10;100.00;51053.75;4782980;30;20070;-73
2022/07/04 02:29:02;;;;;;;37.95;25.40;;;;;;;-143.10;100.00;51047.88;4785963;29;20739;-74
2022/07/04 02:31:44;;;;;;;32.38;23.60;;;;;;;-143.10;100.00;51069.41;4801301;29;20768;-74
2022/07/04 02:34:33;;;;;;;35.83;23.75;;;;;;;-143.10;100.00;51042.00;4799721;29;20058;-73
2022/07/04 02:37:15;;;;;;;37.30;24.80;;;;;;;-143.10;99.66;51040.03;4781666;29;20055;-73
2022/07/04 02:40:04;;;;;;;31.95;23.63;;;;;;;-143.10;100.00;51053.75;4782518;29;20386;-74
2022/07/04 02:42:52;;;;;;;34.70;24.33;;;;;;;-143.10;97.92;51038.09;4783188;30;20557;-74
2022/07/04 02:45:35;;;;;;;32.08;24.13;;;;;;;-143.10;98.67;51026.34;4793821;29;20154;-74
2022/07/04 02:48:30;;;;;;;32.92;23.58;;;;;;;-143.10;95.33;51034.19;4800483;29;20055;-74
2022/07/04 02:51:11;;;;;;;31.15;23.25;;;;;;;-143.10;95.96;51018.50;4786511;29;20370;-73
2022/07/04 02:54:00;;;;;;;31.85;24.17;;;;;;;-143.10;92.96;51065.50;4785182;29;20116;-73
2022/07/04 02:56:42;;;;;;;30.80;23.33;;;;;;;-143.10;95.08;51083.13;4798206;29;20062;-73
2022/07/04 02:59:31;;;;;;;30.30;23.20;;;;;;;-143.10;93.02;51061.59;4799584;29;20050;-72
2022/07/04 03:02:21;;;;;;;29.85;23.73;;;;;;;-143.10;96.69;51069.41;4800627;29;20062;-72
2022/07/04 03:05:03;;;;;;;29.80;23.95;;;;;;;-143.10;94.05;51043.97;4783592;29;20059;-73
2022/07/04 03:07:52;;;;;;;30.58;22.95;;;;;;;-143.10;96.92;51090.94;4768587;30;20071;-73
2022/07/04 03:10:35;;;;;;;28.38;21.83;;;;;;;-143.10;94.75;51030.25;4782618;30;20063;-74
2022/07/04 03:13:25;;;;;;;28.45;22.38;;;;;;;-143.10;93.63;51038.09;4782613;30;20112;-72
2022/07/04 03:16:07;;;;;;;31.67;22.58;;;;;;;-143.10;88.59;51028.31;4766545;30;20051;-72
2022/07/04 03:18:56;;;;;;;32.53;22.30;;;;;;;-143.10;88.85;51030.25;4773661;29;20043;-74
2022/07/04 03:21:38;;;;;;;26.40;21.77;;;;;;;-143.10;90.17;51012.63;4782159;29;20067;-73
2022/07/04 03:24:27;;;;;;;27.58;23.33;;;;;;;-143.10;90.00;51053.75;4782123;29;20071;-75
2022/07/04 03:27:17;;;;;;;30.20;22.55;;;;;;;-143.10;91.09;51032.22;4775857;29;20065;-74
2022/07/04 03:30:06;;;;;;;31.67;24.73;;;;;;;-143.10;89.99;51014.59;4817850;29;20474;-73
2022/07/04 03:32:47;;;;;;;29.55;23.20;;;;;;;-143.10;90.42;51042.00;4784374;29;20043;-74
2022/07/04 03:35:37;;;;;;;29.88;22.00;;;;;;;-143.10;91.38;51014.59;4767961;29;20725;-74
2022/07/04 03:38:18;;;;;;;27.08;22.92;;;;;;;-143.10;87.32;51034.19;4780627;29;20066;-74
2022/07/04 03:41:08;;;;;;;29.20;22.42;;;;;;;-143.10;85.15;51045.91;4786567;29;20074;-73
2022/07/04 03:43:56;;;;;;;30.25;21.88;;;;;;;-143.10;84.22;51038.09;4800029;29;20150;-72
2022/07/04 03:46:45;;;;;;;27.75;21.95;;;;;;;-143.10;82.49;51030.25;4798510;29;20062;-73
2022/07/04 03:49:34;;;;;;;26.80;21.50;;;;;;;-143.10;79.95;51026.34;4800140;29;20162;-71
2022/07/04 03:52:16;;;;;;;27.15;21.58;;;;;;;-143.10;81.65;51002.84;4799721;29;20498;-72
2022/07/04 03:55:05;;;;;;;27.25;20.77;;;;;;;-143.10;82.24;51004.81;4786521;29;20050;-72
2022/07/04 03:57:47;;;;;;;29.05;20.85;;;;;;;-143.10;79.09;50998.94;4791526;29;20105;-69
2022/07/04 04:00:36;;;;;;;24.80;20.50;;;;;;;-143.10;79.67;51020.47;4798749;29;20158;-70
2022/07/04 04:06:32;;;;;;;25.67;21.73;;;;;;;-143.10;81.13;51012.63;4792814;29;20062;-72
2022/07/04 04:09:18;;;;;;;29.55;23.42;;;;;;;-143.10;83.82;51022.44;4794779;29;20086;-69
2022/07/04 04:12:07;;;;;;;26.30;23.50;;;;;;;-143.10;84.93;51010.69;4792912;29;20055;-70
2022/07/04 04:14:50;;;;;;;26.20;23.17;;;;;;;-143.10;82.20;51002.84;4769571;29;20055;-71
2022/07/04 04:17:39;;;;;;;33.05;23.80;;;;;;;-143.10;79.66;51032.22;4785477;29;20056;-72
2022/07/04 04:20:28;;;;;;;30.67;21.45;;;;;;;-143.10;80.35;51006.75;4807572;29;20129;-70
2022/07/04 04:23:17;;;;;;;33.33;23.88;;;;;;;-143.10;81.26;51000.91;4802676;29;20078;-71
2022/07/04 04:26:06;;;;;;;27.48;22.58;;;;;;;-143.10;82.47;50998.94;4791613;29;20048;-70
2022/07/04 04:29:01;;;;;;;30.30;22.38;;;;;;;-143.10;84.13;51038.09;4798400;29;20070;-70
2022/07/04 04:31:36;;;;;;;32.17;24.55;;;;;;;-143.10;85.00;51085.06;4785613;29;20807;-70
2022/07/04 04:34:33;;;;;;;30.98;23.23;;;;;;;-143.10;86.95;51061.59;4816567;29;20058;-68
2022/07/04 04:37:28;;;;;;;28.92;23.70;;;;;;;-143.10;87.22;51032.22;4815799;29;20638;-67
2022/07/04 04:40:04;;;;;;;28.40;21.33;;;;;;;-143.10;86.42;51063.53;4817304;29;20069;-67
2022/07/04 04:42:59;;;;;;;;;;;;;;;-143.10;87.81;51028.31;4801567;29;20042;-67
2022/07/04 04:45:47;;;;;;;26.00;22.05;;;;;;;-143.10;84.27;51034.19;4802536;29;19929;-67
2022/07/04 04:48:43;;;;;;;29.15;21.08;;;;;;;-143.10;84.54;51061.59;4779958;30;20138;-70
2022/07/04 04:51:18;;;;;;;25.75;21.25;;;;;;;-143.10;84.65;50993.06;4779763;30;20052;-69
2022/07/04 04:54:13;;;;;;;27.27;21.80;;;;;;;-143.10;81.98;51038.09;4755658;30;20431;-69
2022/07/04 04:56:48;;;;;;;27.17;21.98;;;;;;;-143.10;83.25;51055.72;4756599;30;20048;-69
2022/07/04 04:59:43;;;;;;;30.40;22.48;;;;;;;-143.10;86.14;51030.25;4779504;30;20119;-69
2022/07/04 05:02:18;;;;;;;24.75;18.63;;;;;;;-143.10;81.64;51069.41;4780260;30;20456;-69
2022/07/04 05:05:07;;;;;;;31.67;21.33;;;;;;;-143.10;84.05;51034.19;4762831;30;20083;-70
2022/07/04 05:07:56;;;;;;;24.05;19.33;;;;;;;-143.10;80.52;51036.13;4762957;30;20048;-71
2022/07/04 05:10:38;;;;;;;23.40;19.90;;;;;;;-143.10;79.80;51024.38;4775264;29;20070;-68
2022/07/04 05:13:28;;;;;;;33.22;21.30;;;;;;;-143.10;81.01;51012.63;4780345;29;20405;-70
2022/07/04 05:16:09;;;;;;;22.23;19.92;;;;;;;-143.10;79.79;50991.09;4777881;30;20056;-69
2022/07/04 05:18:59;;;;;;;26.30;20.73;;;;;;;-143.10;75.36;51026.34;4774106;29;20455;-69
2022/07/04 05:21:40;;;;;;;27.20;20.30;;;;;;;-143.10;77.68;50995.03;4772442;29;20551;-72
2022/07/04 05:24:30;;;;;;;24.10;19.52;;;;;;;-143.10;73.64;51049.84;4775005;29;20104;-70
2022/07/04 05:27:20;;;;;;;29.15;20.55;;;;;;;-143.10;75.92;51004.81;4783447;29;20074;-72
2022/07/04 05:30:03;;;;;;;38.70;22.10;;;;;;;-143.10;80.43;51012.63;4774750;29;20164;-70
2022/07/04 05:32:52;;;;;;;28.35;22.15;;;;;;;-143.10;83.00;51018.50;4771370;30;20055;-68
2022/07/04 05:35:34;;;;;;;28.13;23.40;;;;;;;-143.10;80.00;51020.47;4781085;30;20139;-70
2022/07/04 05:38:22;;;;;;;29.92;21.95;;;;;;;-143.10;85.52;51016.56;4781728;30;20904;-67
2022/07/04 05:41:05;;;;;;;29.30;22.05;;;;;;;-143.10;83.43;51057.66;4780429;30;20066;-68
2022/07/04 05:44:01;;;;;;;25.75;22.27;;;;;;;-143.10;81.26;51022.44;4780375;29;20059;-68
2022/07/04 05:46:49;;;;;;;31.42;22.52;;;;;;;-143.10;76.37;51006.75;4777827;29;20078;-68
2022/07/04 05:49:44;;;;;;;24.40;20.52;;;;;;;-143.10;74.65;51022.44;4792568;29;20051;-69
2022/07/04 05:52:19;;;;;;;21.60;19.10;;;;;;;-143.10;76.53;50991.09;4790487;29;20757;-67
2022/07/04 05:55:15;;;;;;;28.30;20.15;;;;;;;-143.10;71.87;50995.03;4793535;29;20079;-68
2022/07/04 05:57:50;;;;;;;23.35;19.75;;;;;;;-143.10;72.86;51002.84;4771179;30;20055;-68
2022/07/04 06:00:47;;;;;;;23.20;18.13;;;;;;;-143.10;76.61;51006.75;4781380;30;20051;-68
2022/07/04 06:03:22;;;;;;;28.35;20.00;;;;;;;-143.10;69.90;51010.69;4788152;29;20081;-68
2022/07/04 06:06:19;;;;;;;21.15;18.08;;;;;;;-143.10;76.78;50998.94;4799832;29;20368;-67
2022/07/04 06:08:54;;;;;;;25.00;20.60;;;;;;;-143.10;74.27;50971.53;4802274;29;20058;-68
2022/07/04 06:11:51;;;;;;;26.40;20.73;;;;;;;-143.10;75.07;51004.81;4796120;29;20051;-68
2022/07/04 06:14:26;;;;;;;27.27;21.30;;;;;;;-143.10;72.09;50981.31;4791642;29;20050;-70
2022/07/04 06:17:22;;;;;;;27.23;20.88;;;;;;;-143.10;74.48;51002.84;4788611;29;20051;-67
2022/07/04 06:19:57;;;;;;;24.98;20.15;;;;;;;-143.10;75.30;50957.81;4783655;29;20127;-70
2022/07/04 06:22:55;;;;;;;26.00;20.15;;;;;;;-143.10;71.52;50979.34;4788648;29;20133;-68
2022/07/04 06:25:30;;;;;;;23.88;19.45;;;;;;;-143.10;66.84;50973.47;4784479;29;20116;-68
2022/07/04 06:28:25;;;;;;;21.13;18.73;;;;;;;-143.10;68.18;50959.78;4796254;29;20129;-67
2022/07/04 06:31:20;;;;;;;24.35;19.77;;;;;;;-143.10;71.00;50948.03;4783984;30;20146;-67
2022/07/04 06:37:08;;;;;;;26.52;19.40;;;;;;;-143.10;70.48;50971.53;4801357;29;20136;-70
2022/07/04 06:40:04;;;;;;;;;;;;;;;-143.10;71.97;50955.88;4799324;29;20058;-71
2022/07/04 06:42:39;;;;;;;23.45;20.05;;;;;;;-143.10;68.84;50944.13;4789339;29;19935;-70
2022/07/04 06:45:28;;;;;;;23.73;19.60;;;;;;;-143.10;69.54;50969.56;4796295;29;20066;-68
2022/07/04 06:48:14;;;;;;;25.30;21.48;;;;;;;-143.10;66.02;50971.53;4811277;29;20141;-69
2022/07/04 06:51:03;;;;;;;26.98;20.30;;;;;;;-143.10;68.89;50991.09;4790477;29;20666;-70
2022/07/04 06:53:52;;;;;;;23.60;19.73;;;;;;;-143.10;67.15;50955.88;4787508;29;20122;-69
2022/07/04 06:56:34;;;;;;;23.10;19.80;;;;;;;-143.10;67.31;50991.09;4791632;29;20754;-69
2022/07/04 06:59:23;;;;;;;30.88;20.67;;;;;;;-143.10;68.88;50948.03;4803466;29;20149;-69
2022/07/04 07:02:04;;;;;;;25.98;19.83;;;;;;;-143.10;68.61;50963.69;4792749;29;20062;-69
2022/07/04 07:04:54;;;;;;;26.42;17.67;;;;;;;-143.10;73.61;50983.28;4797034;29;20060;-69
2022/07/04 07:07:35;;;;;;;33.10;18.73;;;;;;;-143.10;67.82;50959.78;4784607;29;20145;-69
2022/07/04 07:10:25;;;;;;;23.17;19.35;;;;;;;-143.10;67.86;50955.88;4773068;29;20059;-69
2022/07/04 07:13:07;;;;;;;26.55;19.13;;;;;;;-143.10;69.84;50967.59;4782361;29;20146;-70
2022/07/04 07:15:56;;;;;;;22.88;18.05;;;;;;;-143.10;67.17;51006.75;4785546;29;20059;-71
2022/07/04 07:18:38;;;;;;;;;;;;;;;-143.10;68.11;50987.19;4792159;29;20122;-70
2022/07/04 07:21:28;;;;;;;25.00;18.20;;;;;;;-143.10;68.08;50959.78;4789583;29;19986;-69
2022/07/04 07:24:10;;;;;;;23.48;17.92;;;;;;;-143.10;67.05;50979.34;4795599;29;20051;-69
2022/07/04 07:27:00;;;;;;;21.13;16.75;;;;;;;-143.10;65.14;50975.44;4790361;29;20051;-70
2022/07/04 07:29:42;;;;;;;19.30;17.23;;;;;;;-143.10;66.03;50993.06;4802469;29;20433;-70
2022/07/04 07:32:31;;;;;;;18.63;15.63;;;;;;;-143.10;64.49;50975.44;4789083;29;20054;-71
2022/07/04 07:35:13;;;;;;;23.48;16.88;;;;;;;-143.10;62.46;50928.44;4798740;29;20139;-70
2022/07/04 07:38:02;;;;;;;18.85;15.55;;;;;;;-143.10;65.00;50991.09;4800057;29;20161;-71
2022/07/04 07:40:44;;;;;;;20.50;16.35;;;;;;;-143.10;64.30;50940.19;4789120;29;20067;-71
2022/07/04 07:43:33;;;;;;;18.63;15.48;;;;;;;-143.10;62.92;50979.34;4781483;29;20532;-72
2022/07/04 07:46:21;;;;;;;20.55;16.92;;;;;;;-143.10;62.45;50965.66;4787992;29;20047;-76
2022/07/04 07:49:17;;;;;;;24.58;16.33;;;;;;;-143.10;63.70;50948.03;4789355;29;20143;-76
2022/07/04 07:52:06;;;;;;;24.92;15.45;;;;;;;-143.10;65.87;50975.44;4792134;29;20543;-72
2022/07/04 07:54:55;;;;;;;20.60;16.55;;;;;;;-143.10;66.08;50944.13;4797565;29;20061;-74
2022/07/04 07:57:52;;;;;;;24.10;15.70;;;;;;;-143.10;66.79;50965.66;4781360;29;20051;-71
2022/07/04 08:00:28;;;;;;;17.38;15.38;;;;;;;-143.10;70.28;50989.16;4793212;29;20551;-70
2022/07/04 08:06:35;;;;;;;22.48;15.20;;;;;;;-143.10;70.83;50959.78;4786562;29;20067;-70
2022/07/04 08:09:50;;;;;;;22.60;15.52;;;;;;;-143.10;67.79;50967.59;4770247;30;20429;-71
2022/07/04 08:12:25;;;;;;;17.88;15.05;;;;;;;-143.10;67.60;50951.94;4789256;29;20119;-68
2022/07/04 08:15:21;;;;;;;21.08;16.05;;;;;;;-143.10;67.10;50963.69;4786543;29;20077;-69
2022/07/04 08:17:57;;;;;;;20.95;16.17;;;;;;;-143.10;68.55;50975.44;4778114;29;20050;-70
2022/07/04 08:20:53;;;;;;;17.20;14.65;;;;;;;-143.10;64.91;50977.41;4799659;29;20050;-69
2022/07/04 08:23:36;;;;;;;17.77;15.27;;;;;;;-143.10;65.36;50961.72;4798775;29;20050;-70
2022/07/04 08:26:52;;;;;;;18.88;15.27;;;;;;;-143.10;65.22;50932.38;4790260;29;20054;-70
2022/07/04 08:29:30;;;;;;;18.10;14.93;;;;;;;-143.10;68.45;50963.69;4777648;29;20065;-73
2022/07/04 08:32:26;;;;;;;19.35;14.93;;;;;;;-143.10;64.95;50975.44;4771379;29;20051;-69
2022/07/04 08:35:03;;;;;;;23.17;14.93;;;;;;;-143.10;65.75;50965.66;4786917;29;20055;-68
2022/07/04 08:38:00;;;;;;;22.83;15.35;;;;;;;-143.10;70.28;50940.19;4802064;29;20083;-67
2022/07/04 08:40:35;;;;;;;21.23;16.88;;;;;;;-143.10;72.34;50953.91;4786188;29;20046;-68
2022/07/04 08:43:33;;;;;;;17.55;15.45;;;;;;;-143.10;71.13;50965.66;4786170;29;20115;-69
2022/07/04 08:46:10;;;;;;;22.70;17.60;;;;;;;-143.10;71.58;50957.81;4788449;29;20538;-68
2022/07/04 08:49:13;;;;;;;22.13;17.38;;;;;;;-143.10;73.57;51008.72;4780682;30;20128;-69
2022/07/04 08:52:06;;;;;;;21.92;15.90;;;;;;;-143.10;75.07;50957.81;4767340;30;20051;-70
2022/07/04 09:01:14;;;;;;;26.48;17.25;;;;;;;-143.10;77.44;50965.66;4802528;29;20066;-68
2022/07/04 09:03:57;;;;;;;22.77;17.27;;;;;;;-143.10;78.42;50965.66;4783632;29;20055;-69
2022/07/04 09:06:47;;;;;;;23.23;17.92;;;;;;;-143.10;75.83;50955.88;4784258;30;20116;-66
2022/07/04 09:09:29;;;;;;;23.65;16.85;;;;;;;-143.10;74.84;50953.91;4784609;29;20442;-66
2022/07/04 09:12:19;;;;;;;20.50;16.42;;;;;;;-143.10;75.40;50983.28;4783854;29;20480;-68
2022/07/04 09:15:01;;;;;;;25.83;17.60;;;;;;;-143.10;76.75;50957.81;4784583;29;20047;-67
2022/07/04 09:17:51;;;;;;;28.10;17.15;;;;;;;-143.10;76.00;50951.94;4783992;30;20055;-66
2022/07/04 09:20:45;;;;;;;26.83;18.52;;;;;;;-143.10;74.79;50967.59;4787258;29;20059;-68
2022/07/04 09:23:31;;;;;;;18.02;16.10;;;;;;;-143.10;75.54;50961.72;4799393;29;20158;-69
2022/07/04 09:26:21;;;;;;;21.42;17.88;;;;;;;-143.10;72.94;50965.66;4789801;29;20375;-68
2022/07/04 09:29:05;;;;;;;21.65;17.30;;;;;;;-143.10;74.49;50951.94;4797382;29;20516;-71
2022/07/04 09:32:00;;;;;;;19.75;16.45;;;;;;;-143.10;74.76;50975.44;4777293;29;20062;-68
2022/07/04 09:34:35;;;;;;;23.90;17.70;;;;;;;-143.10;77.16;50965.66;4791780;29;20065;-67
2022/07/04 09:37:47;;;;;;;19.75;16.30;;;;;;;-143.10;76.21;50951.94;4795564;29;20376;-67
2022/07/04 09:41:24;;;;;;;21.65;17.75;;;;;;;-143.10;74.58;50957.81;4790800;29;20051;-67
2022/07/04 09:44:04;;;;;;;27.10;17.33;;;;;;;-143.10;72.80;50951.94;4792157;29;20364;-67
2022/07/04 09:46:53;;;;;;;22.73;18.15;;;;;;;-143.10;71.22;50950.00;4791477;29;20228;-67
2022/07/04 09:49:41;;;;;;;23.48;17.23;;;;;;;-143.10;73.86;50969.56;4791958;29;20058;-69
2022/07/04 09:52:30;;;;;;;19.30;16.35;;;;;;;-143.10;71.55;50971.53;4801490;29;20047;-70
2022/07/04 09:55:19;;;;;;;18.77;16.05;;;;;;;-143.10;72.55;50946.06;4787553;29;20059;-67
2022/07/04 09:58:12;;;;;;;19.60;16.38;;;;;;;-143.10;71.41;50998.94;4801919;29;20123;-69
2022/07/04 10:01:07;;;;;;;19.48;16.42;;;;;;;-143.10;70.83;50932.38;4786401;29;20142;-67
2022/07/04 10:03:52;;;;;;;18.75;15.77;;;;;;;-143.10;70.53;50959.78;4791669;29;20519;-66
2022/07/04 10:06:46;;;;;;;25.05;16.08;;;;;;;-143.10;69.93;50951.94;4801731;29;20671;-67
2022/07/04 10:09:29;;;;;;;20.02;16.77;;;;;;;-143.10;68.58;50961.72;4799763;29;20127;-71
2022/07/04 10:12:32;;;;;;;23.75;16.42;;;;;;;-143.10;70.83;50975.44;4801228;29;20090;-63
2022/07/04 10:15:22;;;;;;;24.02;18.83;;;;;;;-143.10;72.47;50955.88;4801512;29;20150;-65
2022/07/04 10:18:06;;;;;;;19.27;15.73;;;;;;;-143.10;70.03;50944.13;4801376;29;20063;-66
2022/07/04 10:20:56;;;;;;;20.50;16.65;;;;;;;-143.10;71.08;50932.38;4801295;29;20146;-65
2022/07/04 10:23:41;;;;;;;21.95;17.20;;;;;;;-143.10;71.90;50932.38;4801489;29;20050;-67
2022/07/04 10:26:37;;;;;;;22.80;17.77;;;;;;;-143.10;72.42;50950.00;4801711;29;20119;-66
2022/07/04 10:29:26;;;;;;;16.95;14.40;;;;;;;-143.10;70.91;50959.78;4801369;29;20067;-64
2022/07/04 10:32:15;;;;;;;21.23;14.57;;;;;;;-143.10;72.88;50951.94;4800644;29;20161;-64
2022/07/04 10:34:57;;;;;;;16.48;14.23;;;;;;;-143.10;72.84;50951.94;4785451;29;20054;-64
2022/07/04 10:38:05;;;;;;;20.98;16.08;;;;;;;-143.10;74.13;50942.16;4801333;29;20166;-64
2022/07/04 10:40:57;;;;;;;18.00;14.23;;;;;;;-143.10;72.48;50944.13;4790846;29;20051;-62
2022/07/04 10:44:03;;;;;;;21.95;15.27;;;;;;;-143.10;72.14;50975.44;4791060;29;20059;-64
2022/07/04 10:46:50;;;;;;;17.48;14.38;;;;;;;-143.10;72.51;50948.03;4791746;29;20127;-64
2022/07/04 10:49:41;;;;;;;24.42;15.98;;;;;;;-143.10;74.13;50955.88;4795570;29;20491;-64
2022/07/04 10:52:36;;;;;;;18.30;15.63;;;;;;;-143.10;73.56;50963.69;4798571;29;20123;-66
2022/07/04 10:55:31;;;;;;;18.58;14.40;;;;;;;-143.10;71.61;50955.88;4799936;29;20051;-64
2022/07/04 10:58:49;;;;;;;23.67;15.32;;;;;;;-143.10;71.28;50942.16;4800467;29;20492;-64
2022/07/04 11:01:24;;;;;;;16.90;14.45;;;;;;;-143.10;70.16;50987.19;4800169;29;20050;-63
2022/07/04 11:04:13;;;;;;;19.02;14.02;;;;;;;-143.10;70.86;50979.34;4789371;29;20132;-63
2022/07/04 11:06:56;;;;;;;;;;;;;;;-143.10;69.66;50959.78;4783729;30;20505;-62
2022/07/04 11:09:47;;;;;;;19.52;14.75;;;;;;;-143.10;69.57;50928.44;4783232;29;19998;-63
2022/07/04 11:12:29;;;;;;;18.73;14.63;;;;;;;-143.10;70.66;50963.69;4798190;29;20718;-61
2022/07/04 11:15:24;;;;;;;16.65;14.68;;;;;;;-143.10;70.06;50977.41;4800326;29;20062;-63
2022/07/04 11:18:09;;;;;;;24.33;15.77;;;;;;;-143.10;70.19;50951.94;4801161;29;20415;-63
2022/07/04 11:21:04;;;;;;;15.68;14.00;;;;;;;-143.10;73.84;50942.16;4789312;29;20051;-64
2022/07/04 11:23:48;;;;;;;16.90;14.32;;;;;;;-143.10;71.00;50959.78;4799626;29;20055;-64
2022/07/04 11:26:38;;;;;;;15.40;13.80;;;;;;;-143.10;69.68;50957.81;4800116;29;20055;-65
2022/07/04 11:29:27;;;;;;;19.92;13.90;;;;;;;-143.10;70.08;50908.88;4800014;29;20119;-65
2022/07/04 11:32:09;;;;;;;16.77;13.27;;;;;;;-143.10;70.08;50950.00;4783095;29;20055;-67
2022/07/04 11:34:58;;;;;;;19.00;14.05;;;;;;;-143.10;69.11;50946.06;4802358;29;20107;-66
2022/07/04 11:37:45;;;;;;;15.65;13.80;;;;;;;-143.10;69.48;50959.78;4810331;29;20057;-67
2022/07/04 11:47:12;;;;;;;20.00;13.80;;;;;;;-143.10;71.86;50944.13;4799682;29;20103;-65
2022/07/04 11:49:56;;;;;;;15.93;12.82;;;;;;;-143.10;70.35;50944.13;4799350;29;20055;-66
2022/07/04 11:52:56;;;;;;;20.90;11.98;;;;;;;-143.10;70.30;50948.03;4783784;29;20082;-65
2022/07/04 11:56:05;;;;;;;13.73;11.95;;;;;;;-143.10;71.34;50953.91;4787639;29;20050;-63
2022/07/04 11:59:00;;;;;;;17.58;12.98;;;;;;;-143.10;69.08;50955.88;4802699;29;20054;-66
2022/07/04 12:01:35;;;;;;;16.67;11.48;;;;;;;-143.10;70.15;50955.88;4799321;29;20046;-65
2022/07/04 12:04:30;;;;;;;15.57;12.23;;;;;;;-143.10;70.86;50936.28;4786034;29;20051;-66
2022/07/04 12:07:18;;;;;;;19.05;12.27;;;;;;;-143.10;71.54;50924.53;4781151;29;20047;-64
2022/07/04 12:10:29;;;;;;;13.25;11.60;;;;;;;-143.10;69.68;50967.59;4781478;29;20558;-64
2022/07/04 12:13:08;;;;;;;21.15;12.88;;;;;;;-143.10;72.49;50983.28;4781150;30;20059;-63
2022/07/04 12:15:57;;;;;;;26.45;16.60;;;;;;;-143.10;76.70;50989.16;4783145;29;20434;-63
2022/07/04 12:18:47;;;;;;;21.85;17.85;;;;;;;-143.10;78.65;50951.94;4798655;29;20051;-63
2022/07/04 12:21:28;;;;;;;31.58;20.05;;;;;;;-143.10;78.66;50946.06;4797152;29;20051;-64
2022/07/04 12:24:18;;;;;;;26.08;20.83;;;;;;;-143.10;79.49;50963.69;4798616;29;20059;-66
2022/07/04 12:27:06;;;;;;;24.23;19.35;;;;;;;-143.10;79.31;51002.84;4798970;29;20075;-65
2022/07/04 12:29:57;;;;;;;26.50;21.30;;;;;;;-143.10;79.43;50951.94;4798831;29;20062;-65
2022/07/04 12:32:50;;;;;;;27.60;19.67;;;;;;;-143.10;79.26;50940.19;4797511;29;20066;-65
2022/07/04 12:35:47;;;;;;;30.83;21.25;;;;;;;-143.10;80.58;50950.00;4805032;29;20145;-66
2022/07/04 12:38:29;;;;;;;27.35;20.90;;;;;;;-143.10;81.08;50940.19;4817109;29;20466;-68
2022/07/04 12:41:21;;;;;;;27.73;21.88;;;;;;;-143.10;80.35;50969.56;4816416;29;20458;-66
2022/07/04 12:44:03;;;;;;;27.52;21.83;;;;;;;-143.10;80.70;50953.91;4816426;29;20491;-67
2022/07/04 12:46:53;;;;;;;34.35;20.63;;;;;;;-143.10;80.33;50950.00;4816995;29;20753;-66
2022/07/04 12:49:53;;;;;;;30.55;21.85;;;;;;;-143.10;80.89;50969.56;4817270;29;20118;-65
2022/07/04 12:52:47;;;;;;;27.80;20.92;;;;;;;-143.10;80.83;50973.47;4800148;29;20250;-64
2022/07/04 12:55:36;;;;;;;26.98;20.45;;;;;;;-143.10;82.03;50938.25;4779990;29;20124;-65
2022/07/04 12:58:32;;;;;;;32.00;19.30;;;;;;;-143.10;81.15;50961.72;4764603;30;20069;-66
2022/07/04 13:01:07;;;;;;;28.38;20.90;;;;;;;-143.10;81.57;50991.09;4780325;29;20490;-67
2022/07/04 13:03:57;;;;;;;25.83;19.77;;;;;;;-143.10;81.17;50955.88;4764954;30;20047;-65